Filter

My recent searches
Filter by:
Budget
to
to
to
Skills
Languages
    Job State
    3 aivdm jobs found, pricing in USD

    ...receives data similar to: !AIVDM,1,1,,B,141iWb0P000`=blNGrhh0?vR0<0u,0*57 !AIVDM,2,1,2,B,541iWb400000tkKC3J05@PDp400000000000001S:0945t@P00mPC1CP,0*5F !AIVDM,2,2,2,B,jACSQDp00000000,2*4B !AIVDM,1,1,,B,841iWb0j2d>==LL=<QT0g?`06pP0,0*6C !AIVDM,1,1,,A,141iWb0P000`=bfNGrhh0?vl0<0u,0*60 !AIVDM,1,1,,B,139eVOPP00P`<FtNGpl6lgvv2HBJ,0*06 !AIVDM...

    $309 (Avg Bid)
    $309 Avg Bid
    1 bids

    ...following formating: !AIVDM,1,1,,B,141iWb0P000`=blNGrhh0?vR0<0u,0*57 !AIVDM,2,1,2,B,541iWb400000tkKC3J05@PDp400000000000001S:0945t@P00mPC1CP,0*5F !AIVDM,2,2,2,B,jACSQDp00000000,2*4B !AIVDM,1,1,,B,841iWb0j2d>==LL=<QT0g?`06pP0,0*6C !AIVDM,1,1,,A,141iWb0P000`=bfNGrhh0?vl0<0u,0*60 !AIVDM,1,1,,B,139eVOPP00P`<FtNGpl6lgvv2HBJ,0*06 !AIVDM,...

    $12 (Avg Bid)
    $12 Avg Bid
    1 bids

    ...example: !AIVDM,1,1,,B,169?;>000089Jap<nvS<2r2d0H<q,0*13 !AIVDM,1,1,,B,177CQd800q`9C8D<n4A=L:bf0D0o,0*0E !AIVDM,1,1,,B,D04SGT1@qNL8,0*1F !AIVDM,1,1,,B,19NWp8h00289HGt<nii`L4Jl0<0k,0*67 !AIVDM,2,2,4,B,H88888888888880,2*53 !AIVDM,1,1,,B,403tAeQuBU8=N`9E;p<noc70050l,0*6D !AIVDM,1,1,,B,D04SGT0liNL8,0*2A !AIVDM,1...

    PHP
    $750 - $1500
    Sealed
    $750 - $1500
    9 bids